createdAt,value
2023-01-30T00:22:10.771Z,26
2023-01-30T00:50:44.189Z,26
2023-01-30T01:19:10.041Z,52
2023-01-30T01:47:31.498Z,28
2023-01-30T02:15:56.197Z,27
2023-01-30T02:44:35.131Z,29
2023-01-30T03:13:01.433Z,28
2023-01-30T03:41:27.054Z,26
2023-01-30T04:10:00.848Z,26
2023-01-30T04:38:34.729Z,25
2023-01-30T05:07:07.182Z,25
2023-01-30T05:35:27.243Z,25
2023-01-30T06:04:05.010Z,22
2023-01-30T06:32:20.176Z,23
2023-01-30T07:00:38.791Z,25
2023-01-30T07:29:03.060Z,23
2023-01-30T07:57:28.907Z,26
2023-01-30T08:26:02.910Z,26
2023-01-30T08:54:36.058Z,26
2023-01-30T09:23:03.586Z,26
2023-01-30T09:51:32.961Z,26
2023-01-30T10:19:52.153Z,25
2023-01-30T10:48:15.432Z,25
2023-01-30T11:16:34.352Z,26
2023-01-30T11:45:16.459Z,25
2023-01-30T12:13:15.854Z,25
2023-01-30T12:41:32.359Z,25
2023-01-30T13:09:55.484Z,25
2023-01-30T13:38:11.673Z,25
2023-01-30T14:06:38.540Z,25
2023-01-30T14:34:59.528Z,22
2023-01-30T15:03:23.714Z,22
2023-01-30T15:31:43.236Z,23
2023-01-30T16:00:12.667Z,20
2023-01-30T16:28:20.603Z,22
2023-01-30T16:56:39.457Z,22
2023-01-30T17:53:36.189Z,20
2023-01-30T18:21:55.765Z,17
2023-01-30T18:50:17.637Z,16
2023-01-30T19:19:07.165Z,14
2023-01-30T19:47:41.918Z,13
2023-01-30T20:16:15.119Z,11
2023-01-30T20:44:48.228Z,13
2023-01-30T21:13:10.472Z,14
2023-01-30T21:41:41.290Z,12
2023-01-30T22:10:05.984Z,13
2023-01-30T22:38:41.944Z,12
2023-01-30T23:07:04.477Z,13
2023-01-30T23:35:36.826Z,14
